sensor_id;sensor_type;location;lat;lon;timestamp;temperature;humidity
3638;DHT22;1835;50.068;8.154;2023-03-21T00:00:39;9.00;99.90
3638;DHT22;1835;50.068;8.154;2023-03-21T00:03:07;8.90;99.90
3638;DHT22;1835;50.068;8.154;2023-03-21T00:05:38;9.00;99.90
3638;DHT22;1835;50.068;8.154;2023-03-21T00:08:07;8.80;99.90
3638;DHT22;1835;50.068;8.154;2023-03-21T00:10:36;8.70;99.90
3638;DHT22;1835;50.068;8.154;2023-03-21T00:13:11;8.70;99.90
3638;DHT22;1835;50.068;8.154;2023-03-21T00:15:39;8.90;99.90
3638;DHT22;1835;50.068;8.154;2023-03-21T00:18:36;8.70;99.90
3638;DHT22;1835;50.068;8.154;2023-03-21T00:21:10;8.70;99.90
3638;DHT22;1835;50.068;8.154;2023-03-21T00:24:00;8.60;99.90
3638;DHT22;1835;50.068;8.154;2023-03-21T00:26:29;8.60;99.90
3638;DHT22;1835;50.068;8.154;2023-03-21T00:28:58;8.60;99.90
3638;DHT22;1835;50.068;8.154;2023-03-21T00:31:26;8.70;99.90
3638;DHT22;1835;50.068;8.154;2023-03-21T00:33:55;8.70;99.90
3638;DHT22;1835;50.068;8.154;2023-03-21T00:36:23;8.60;99.90
3638;DHT22;1835;50.068;8.154;2023-03-21T00:38:52;8.50;99.90
3638;DHT22;1835;50.068;8.154;2023-03-21T00:41:21;8.60;99.90
3638;DHT22;1835;50.068;8.154;2023-03-21T00:44:09;8.60;99.90
3638;DHT22;1835;50.068;8.154;2023-03-21T00:46:39;8.70;99.90
3638;DHT22;1835;50.068;8.154;2023-03-21T00:49:22;8.70;99.90
3638;DHT22;1835;50.068;8.154;2023-03-21T00:51:51;8.60;99.90
3638;DHT22;1835;50.068;8.154;2023-03-21T00:54:22;8.50;99.90
3638;DHT22;1835;50.068;8.154;2023-03-21T00:56:51;8.40;99.90
3638;DHT22;1835;50.068;8.154;2023-03-21T00:59:21;8.40;99.90
3638;DHT22;1835;50.068;8.154;2023-03-21T01:01:49;8.40;99.90
3638;DHT22;1835;50.068;8.154;2023-03-21T01:04:19;8.40;99.90
3638;DHT22;1835;50.068;8.154;2023-03-21T01:06:53;8.30;99.90
3638;DHT22;1835;50.068;8.154;2023-03-21T01:09:22;8.40;99.90
3638;DHT22;1835;50.068;8.154;2023-03-21T01:11:52;8.50;99.90
3638;DHT22;1835;50.068;8.154;2023-03-21T01:14:22;8.50;99.90
3638;DHT22;1835;50.068;8.154;2023-03-21T01:16:51;8.60;99.90
3638;DHT22;1835;50.068;8.154;2023-03-21T01:19:20;8.50;99.90
3638;DHT22;1835;50.068;8.154;2023-03-21T01:22:06;8.60;99.90
3638;DHT22;1835;50.068;8.154;2023-03-21T01:24:34;8.50;99.90
3638;DHT22;1835;50.068;8.154;2023-03-21T01:27:12;8.50;99.90
3638;DHT22;1835;50.068;8.154;2023-03-21T01:29:41;8.40;99.90
3638;DHT22;1835;50.068;8.154;2023-03-21T01:32:10;8.60;99.90
3638;DHT22;1835;50.068;8.154;2023-03-21T01:34:38;8.60;99.90
3638;DHT22;1835;50.068;8.154;2023-03-21T01:37:06;8.60;99.90
3638;DHT22;1835;50.068;8.154;2023-03-21T01:39:34;8.50;99.90
3638;DHT22;1835;50.068;8.154;2023-03-21T01:42:03;8.50;99.90
3638;DHT22;1835;50.068;8.154;2023-03-21T01:44:31;8.30;99.90
3638;DHT22;1835;50.068;8.154;2023-03-21T01:47:00;8.20;99.90
3638;DHT22;1835;50.068;8.154;2023-03-21T01:49:39;8.10;99.90
3638;DHT22;1835;50.068;8.154;2023-03-21T01:52:14;8.20;99.90
3638;DHT22;1835;50.068;8.154;2023-03-21T01:55:01;8.20;99.90
3638;DHT22;1835;50.068;8.154;2023-03-21T01:57:34;8.20;99.90
3638;DHT22;1835;50.068;8.154;2023-03-21T02:00:19;8.10;99.90
3638;DHT22;1835;50.068;8.154;2023-03-21T02:02:50;8.10;99.90
3638;DHT22;1835;50.068;8.154;2023-03-21T02:05:29;8.00;99.90
3638;DHT22;1835;50.068;8.154;2023-03-21T02:08:03;7.90;99.90
3638;DHT22;1835;50.068;8.154;2023-03-21T02:10:32;7.80;99.90
3638;DHT22;1835;50.068;8.154;2023-03-21T02:13:03;7.60;99.90
3638;DHT22;1835;50.068;8.154;2023-03-21T02:15:36;7.60;99.90
3638;DHT22;1835;50.068;8.154;2023-03-21T02:18:12;7.60;99.90
3638;DHT22;1835;50.068;8.154;2023-03-21T02:24:02;7.40;99.90
3638;DHT22;1835;50.068;8.154;2023-03-21T02:26:55;7.50;99.90
3638;DHT22;1835;50.068;8.154;2023-03-21T02:29:57;7.40;99.90
3638;DHT22;1835;50.068;8.154;2023-03-21T02:33:09;7.40;99.90
3638;DHT22;1835;50.068;8.154;2023-03-21T02:36:06;7.60;99.90
3638;DHT22;1835;50.068;8.154;2023-03-21T02:38:52;7.60;99.90
3638;DHT22;1835;50.068;8.154;2023-03-21T02:41:30;7.80;99.90
3638;DHT22;1835;50.068;8.154;2023-03-21T02:44:09;7.70;99.90
3638;DHT22;1835;50.068;8.154;2023-03-21T02:46:45;7.60;99.90
3638;DHT22;1835;50.068;8.154;2023-03-21T02:49:33;7.60;99.90
3638;DHT22;1835;50.068;8.154;2023-03-21T02:52:07;7.60;99.90
3638;DHT22;1835;50.068;8.154;2023-03-21T02:54:50;7.60;99.90
3638;DHT22;1835;50.068;8.154;2023-03-21T02:57:19;7.50;99.90
3638;DHT22;1835;50.068;8.154;2023-03-21T02:59:53;7.50;99.90
3638;DHT22;1835;50.068;8.154;2023-03-21T03:02:30;7.40;99.90
3638;DHT22;1835;50.068;8.154;2023-03-21T03:04:58;7.50;99.90
3638;DHT22;1835;50.068;8.154;2023-03-21T03:07:39;7.50;99.90
3638;DHT22;1835;50.068;8.154;2023-03-21T03:13:26;7.50;99.90
3638;DHT22;1835;50.068;8.154;2023-03-21T03:16:11;7.60;99.90
3638;DHT22;1835;50.068;8.154;2023-03-21T03:18:50;7.60;99.90
3638;DHT22;1835;50.068;8.154;2023-03-21T03:21:22;7.60;99.90
3638;DHT22;1835;50.068;8.154;2023-03-21T03:23:57;7.70;99.90
3638;DHT22;1835;50.068;8.154;2023-03-21T03:26:32;7.70;99.90
3638;DHT22;1835;50.068;8.154;2023-03-21T03:29:05;7.70;99.90
3638;DHT22;1835;50.068;8.154;2023-03-21T03:31:36;7.60;99.90
3638;DHT22;1835;50.068;8.154;2023-03-21T03:34:09;7.60;99.90
3638;DHT22;1835;50.068;8.154;2023-03-21T03:36:41;7.80;99.90
3638;DHT22;1835;50.068;8.154;2023-03-21T03:39:14;7.80;99.90
3638;DHT22;1835;50.068;8.154;2023-03-21T03:41:49;7.90;99.90
3638;DHT22;1835;50.068;8.154;2023-03-21T03:44:40;7.90;99.90
3638;DHT22;1835;50.068;8.154;2023-03-21T03:47:10;7.80;99.90
3638;DHT22;1835;50.068;8.154;2023-03-21T03:50:00;7.90;99.90
3638;DHT22;1835;50.068;8.154;2023-03-21T03:52:32;7.90;99.90
3638;DHT22;1835;50.068;8.154;2023-03-21T03:55:15;7.80;99.90
3638;DHT22;1835;50.068;8.154;2023-03-21T03:57:46;7.80;99.90
3638;DHT22;1835;50.068;8.154;2023-03-21T04:00:15;8.00;99.90
3638;DHT22;1835;50.068;8.154;2023-03-21T04:02:44;8.00;99.90
3638;DHT22;1835;50.068;8.154;2023-03-21T04:05:12;7.90;99.90
3638;DHT22;1835;50.068;8.154;2023-03-21T04:07:41;7.90;99.90
3638;DHT22;1835;50.068;8.154;2023-03-21T04:10:09;8.00;99.90
3638;DHT22;1835;50.068;8.154;2023-03-21T04:12:38;8.00;99.90
3638;DHT22;1835;50.068;8.154;2023-03-21T04:15:08;8.10;99.90
3638;DHT22;1835;50.068;8.154;2023-03-21T04:17:37;8.00;99.90
3638;DHT22;1835;50.068;8.154;2023-03-21T04:20:06;8.00;99.90
3638;DHT22;1835;50.068;8.154;2023-03-21T04:22:42;8.00;99.90
3638;DHT22;1835;50.068;8.154;2023-03-21T04:25:10;8.00;99.90
3638;DHT22;1835;50.068;8.154;2023-03-21T04:27:50;8.00;99.90
3638;DHT22;1835;50.068;8.154;2023-03-21T04:30:19;8.00;99.90
3638;DHT22;1835;50.068;8.154;2023-03-21T04:32:47;7.90;99.90
3638;DHT22;1835;50.068;8.154;2023-03-21T04:35:23;7.90;99.90
3638;DHT22;1835;50.068;8.154;2023-03-21T04:37:51;8.00;99.90
3638;DHT22;1835;50.068;8.154;2023-03-21T04:40:19;8.00;99.90
3638;DHT22;1835;50.068;8.154;2023-03-21T04:42:47;8.10;99.90
3638;DHT22;1835;50.068;8.154;2023-03-21T04:45:16;8.20;99.90
3638;DHT22;1835;50.068;8.154;2023-03-21T04:47:45;8.20;99.90
3638;DHT22;1835;50.068;8.154;2023-03-21T04:50:13;8.20;99.90
3638;DHT22;1835;50.068;8.154;2023-03-21T04:52:42;8.10;99.90
3638;DHT22;1835;50.068;8.154;2023-03-21T04:55:10;8.10;99.90
3638;DHT22;1835;50.068;8.154;2023-03-21T04:57:38;8.10;99.90
3638;DHT22;1835;50.068;8.154;2023-03-21T05:00:07;8.20;99.90
3638;DHT22;1835;50.068;8.154;2023-03-21T05:02:37;8.20;99.90
3638;DHT22;1835;50.068;8.154;2023-03-21T05:05:07;8.20;99.90
3638;DHT22;1835;50.068;8.154;2023-03-21T05:07:38;8.10;99.90
3638;DHT22;1835;50.068;8.154;2023-03-21T05:10:09;8.20;99.90
3638;DHT22;1835;50.068;8.154;2023-03-21T05:12:38;8.20;99.90
3638;DHT22;1835;50.068;8.154;2023-03-21T05:15:08;8.20;99.90
3638;DHT22;1835;50.068;8.154;2023-03-21T05:17:36;8.10;99.90
3638;DHT22;1835;50.068;8.154;2023-03-21T05:20:05;8.10;99.90
3638;DHT22;1835;50.068;8.154;2023-03-21T05:22:36;8.10;99.90
3638;DHT22;1835;50.068;8.154;2023-03-21T05:25:08;8.20;99.90
3638;DHT22;1835;50.068;8.154;2023-03-21T05:27:37;8.30;99.90
3638;DHT22;1835;50.068;8.154;2023-03-21T05:30:13;8.20;99.90
3638;DHT22;1835;50.068;8.154;2023-03-21T05:32:43;8.30;99.90
3638;DHT22;1835;50.068;8.154;2023-03-21T05:35:12;8.30;99.90
3638;DHT22;1835;50.068;8.154;2023-03-21T05:37:40;8.30;99.90
3638;DHT22;1835;50.068;8.154;2023-03-21T05:40:09;8.30;99.90
3638;DHT22;1835;50.068;8.154;2023-03-21T05:42:38;8.40;99.90
3638;DHT22;1835;50.068;8.154;2023-03-21T05:45:06;8.40;99.90
3638;DHT22;1835;50.068;8.154;2023-03-21T05:47:34;8.50;99.90
3638;DHT22;1835;50.068;8.154;2023-03-21T05:50:03;8.50;99.90
3638;DHT22;1835;50.068;8.154;2023-03-21T05:52:33;8.40;99.90
3638;DHT22;1835;50.068;8.154;2023-03-21T05:55:02;8.50;99.90
3638;DHT22;1835;50.068;8.154;2023-03-21T05:57:30;8.60;99.90
3638;DHT22;1835;50.068;8.154;2023-03-21T06:00:00;8.60;99.90
3638;DHT22;1835;50.068;8.154;2023-03-21T06:02:29;8.60;99.90
3638;DHT22;1835;50.068;8.154;2023-03-21T06:04:57;8.60;99.90
3638;DHT22;1835;50.068;8.154;2023-03-21T06:07:25;8.60;99.90
3638;DHT22;1835;50.068;8.154;2023-03-21T06:09:54;8.70;99.90
3638;DHT22;1835;50.068;8.154;2023-03-21T06:12:22;8.80;99.90
3638;DHT22;1835;50.068;8.154;2023-03-21T06:14:50;8.80;99.90
3638;DHT22;1835;50.068;8.154;2023-03-21T06:17:18;8.90;99.90
3638;DHT22;1835;50.068;8.154;2023-03-21T06:19:46;9.00;99.90
3638;DHT22;1835;50.068;8.154;2023-03-21T06:22:14;9.10;99.90
3638;DHT22;1835;50.068;8.154;2023-03-21T06:24:42;9.10;99.90
3638;DHT22;1835;50.068;8.154;2023-03-21T06:27:12;9.30;99.90
3638;DHT22;1835;50.068;8.154;2023-03-21T06:29:40;9.30;99.90
3638;DHT22;1835;50.068;8.154;2023-03-21T06:32:08;9.30;99.90
3638;DHT22;1835;50.068;8.154;2023-03-21T06:34:36;9.30;99.90
3638;DHT22;1835;50.068;8.154;2023-03-21T06:37:05;9.30;99.90
3638;DHT22;1835;50.068;8.154;2023-03-21T06:39:34;9.30;99.90
3638;DHT22;1835;50.068;8.154;2023-03-21T06:42:02;9.50;99.90
3638;DHT22;1835;50.068;8.154;2023-03-21T06:44:31;9.50;99.90
3638;DHT22;1835;50.068;8.154;2023-03-21T06:46:59;9.70;99.90
3638;DHT22;1835;50.068;8.154;2023-03-21T06:49:28;9.80;99.90
3638;DHT22;1835;50.068;8.154;2023-03-21T06:51:56;10.10;99.90
3638;DHT22;1835;50.068;8.154;2023-03-21T06:54:24;10.50;99.90
3638;DHT22;1835;50.068;8.154;2023-03-21T06:56:52;10.90;99.90
3638;DHT22;1835;50.068;8.154;2023-03-21T06:59:21;11.10;99.90
3638;DHT22;1835;50.068;8.154;2023-03-21T07:01:50;11.10;99.90
3638;DHT22;1835;50.068;8.154;2023-03-21T07:04:18;11.20;99.90
3638;DHT22;1835;50.068;8.154;2023-03-21T07:06:46;11.40;99.90
3638;DHT22;1835;50.068;8.154;2023-03-21T07:09:14;11.40;99.90
3638;DHT22;1835;50.068;8.154;2023-03-21T07:11:50;11.40;99.90
3638;DHT22;1835;50.068;8.154;2023-03-21T07:14:19;11.30;99.90
3638;DHT22;1835;50.068;8.154;2023-03-21T07:16:50;11.40;99.90
3638;DHT22;1835;50.068;8.154;2023-03-21T07:19:18;11.60;99.90
3638;DHT22;1835;50.068;8.154;2023-03-21T07:21:46;11.70;99.90
3638;DHT22;1835;50.068;8.154;2023-03-21T07:24:14;11.80;99.90
3638;DHT22;1835;50.068;8.154;2023-03-21T07:26:42;11.70;99.90
3638;DHT22;1835;50.068;8.154;2023-03-21T07:29:10;11.70;99.90
3638;DHT22;1835;50.068;8.154;2023-03-21T07:31:38;11.70;99.90
3638;DHT22;1835;50.068;8.154;2023-03-21T07:34:08;11.70;99.90
3638;DHT22;1835;50.068;8.154;2023-03-21T07:36:36;11.80;99.90
3638;DHT22;1835;50.068;8.154;2023-03-21T07:39:04;11.90;99.90
3638;DHT22;1835;50.068;8.154;2023-03-21T07:41:33;11.90;99.90
3638;DHT22;1835;50.068;8.154;2023-03-21T07:44:01;11.80;99.90
3638;DHT22;1835;50.068;8.154;2023-03-21T07:46:29;12.00;99.90
3638;DHT22;1835;50.068;8.154;2023-03-21T07:48:57;12.00;99.90
3638;DHT22;1835;50.068;8.154;2023-03-21T07:51:27;11.80;99.90
3638;DHT22;1835;50.068;8.154;2023-03-21T07:53:55;11.80;99.90
3638;DHT22;1835;50.068;8.154;2023-03-21T07:56:23;11.60;99.90
3638;DHT22;1835;50.068;8.154;2023-03-21T07:58:51;11.50;99.90
3638;DHT22;1835;50.068;8.154;2023-03-21T08:01:19;11.50;99.90
3638;DHT22;1835;50.068;8.154;2023-03-21T08:03:47;11.60;99.90
3638;DHT22;1835;50.068;8.154;2023-03-21T08:06:16;11.90;99.90
3638;DHT22;1835;50.068;8.154;2023-03-21T08:08:46;11.90;99.90
3638;DHT22;1835;50.068;8.154;2023-03-21T08:11:14;11.80;99.90
3638;DHT22;1835;50.068;8.154;2023-03-21T08:13:43;12.00;99.90
3638;DHT22;1835;50.068;8.154;2023-03-21T08:16:11;12.20;99.90
3638;DHT22;1835;50.068;8.154;2023-03-21T08:18:39;12.20;99.90
3638;DHT22;1835;50.068;8.154;2023-03-21T08:21:08;12.30;99.90
3638;DHT22;1835;50.068;8.154;2023-03-21T08:23:36;12.20;99.90
3638;DHT22;1835;50.068;8.154;2023-03-21T08:26:06;12.20;99.90
3638;DHT22;1835;50.068;8.154;2023-03-21T08:28:35;12.20;99.90
3638;DHT22;1835;50.068;8.154;2023-03-21T08:31:06;12.10;99.90
3638;DHT22;1835;50.068;8.154;2023-03-21T08:33:35;12.40;99.90
3638;DHT22;1835;50.068;8.154;2023-03-21T08:36:08;12.50;99.90
3638;DHT22;1835;50.068;8.154;2023-03-21T08:38:36;12.50;99.90
3638;DHT22;1835;50.068;8.154;2023-03-21T08:41:06;12.40;99.90
3638;DHT22;1835;50.068;8.154;2023-03-21T08:43:34;12.40;99.90
3638;DHT22;1835;50.068;8.154;2023-03-21T08:46:02;12.50;99.90
3638;DHT22;1835;50.068;8.154;2023-03-21T08:48:30;12.60;99.90
3638;DHT22;1835;50.068;8.154;2023-03-21T08:50:59;12.40;99.90
3638;DHT22;1835;50.068;8.154;2023-03-21T08:53:27;12.20;99.90
3638;DHT22;1835;50.068;8.154;2023-03-21T08:55:55;12.40;99.90
3638;DHT22;1835;50.068;8.154;2023-03-21T08:58:25;12.40;99.90
3638;DHT22;1835;50.068;8.154;2023-03-21T09:00:53;12.20;99.90
3638;DHT22;1835;50.068;8.154;2023-03-21T09:03:21;12.30;99.90
3638;DHT22;1835;50.068;8.154;2023-03-21T09:05:52;12.30;99.90
3638;DHT22;1835;50.068;8.154;2023-03-21T09:08:20;12.20;99.90
3638;DHT22;1835;50.068;8.154;2023-03-21T09:10:51;12.10;99.90
3638;DHT22;1835;50.068;8.154;2023-03-21T09:13:20;12.00;99.90
3638;DHT22;1835;50.068;8.154;2023-03-21T09:15:49;11.90;99.90
3638;DHT22;1835;50.068;8.154;2023-03-21T09:18:18;11.80;99.90
3638;DHT22;1835;50.068;8.154;2023-03-21T09:20:48;11.80;99.90
3638;DHT22;1835;50.068;8.154;2023-03-21T09:23:17;12.00;99.90
3638;DHT22;1835;50.068;8.154;2023-03-21T09:25:45;12.20;99.90
3638;DHT22;1835;50.068;8.154;2023-03-21T09:28:13;12.20;99.90
3638;DHT22;1835;50.068;8.154;2023-03-21T09:30:42;12.20;99.90
3638;DHT22;1835;50.068;8.154;2023-03-21T09:33:11;12.30;99.90
3638;DHT22;1835;50.068;8.154;2023-03-21T09:35:46;12.20;99.90
3638;DHT22;1835;50.068;8.154;2023-03-21T09:38:17;12.30;99.90
3638;DHT22;1835;50.068;8.154;2023-03-21T09:41:00;12.40;99.90
3638;DHT22;1835;50.068;8.154;2023-03-21T09:43:42;12.60;99.90
3638;DHT22;1835;50.068;8.154;2023-03-21T09:46:20;12.40;99.90
3638;DHT22;1835;50.068;8.154;2023-03-21T09:48:56;12.30;99.90
3638;DHT22;1835;50.068;8.154;2023-03-21T09:51:29;12.20;99.90
3638;DHT22;1835;50.068;8.154;2023-03-21T09:54:02;12.30;99.90
3638;DHT22;1835;50.068;8.154;2023-03-21T09:56:35;12.20;99.90
3638;DHT22;1835;50.068;8.154;2023-03-21T09:59:06;12.10;99.90
3638;DHT22;1835;50.068;8.154;2023-03-21T10:01:36;12.10;99.90
3638;DHT22;1835;50.068;8.154;2023-03-21T10:04:13;12.00;99.90
3638;DHT22;1835;50.068;8.154;2023-03-21T10:06:49;11.90;99.90
3638;DHT22;1835;50.068;8.154;2023-03-21T10:09:23;11.90;99.90
3638;DHT22;1835;50.068;8.154;2023-03-21T10:11:55;12.00;99.90
3638;DHT22;1835;50.068;8.154;2023-03-21T10:14:29;11.90;99.90
3638;DHT22;1835;50.068;8.154;2023-03-21T10:17:01;11.70;99.90
3638;DHT22;1835;50.068;8.154;2023-03-21T10:19:34;11.70;99.90
3638;DHT22;1835;50.068;8.154;2023-03-21T10:22:02;12.10;99.90
3638;DHT22;1835;50.068;8.154;2023-03-21T10:24:32;12.30;99.90
3638;DHT22;1835;50.068;8.154;2023-03-21T10:27:02;12.10;99.90
3638;DHT22;1835;50.068;8.154;2023-03-21T10:29:34;12.10;99.90
3638;DHT22;1835;50.068;8.154;2023-03-21T10:32:09;11.90;99.90
3638;DHT22;1835;50.068;8.154;2023-03-21T10:34:42;12.00;99.90
3638;DHT22;1835;50.068;8.154;2023-03-21T10:37:13;11.80;99.90
3638;DHT22;1835;50.068;8.154;2023-03-21T10:39:45;11.80;99.90
3638;DHT22;1835;50.068;8.154;2023-03-21T10:42:17;11.80;99.90
3638;DHT22;1835;50.068;8.154;2023-03-21T10:44:49;11.50;99.90
3638;DHT22;1835;50.068;8.154;2023-03-21T10:47:22;11.70;99.90
3638;DHT22;1835;50.068;8.154;2023-03-21T10:49:54;11.40;99.90
3638;DHT22;1835;50.068;8.154;2023-03-21T10:52:34;11.40;99.90
3638;DHT22;1835;50.068;8.154;2023-03-21T10:55:07;11.40;99.90
3638;DHT22;1835;50.068;8.154;2023-03-21T10:57:44;11.20;99.90
3638;DHT22;1835;50.068;8.154;2023-03-21T11:00:19;11.30;99.90
3638;DHT22;1835;50.068;8.154;2023-03-21T11:02:49;11.60;99.90
3638;DHT22;1835;50.068;8.154;2023-03-21T11:05:23;11.70;99.90
3638;DHT22;1835;50.068;8.154;2023-03-21T11:08:00;11.60;99.90
3638;DHT22;1835;50.068;8.154;2023-03-21T11:10:32;11.60;99.90
3638;DHT22;1835;50.068;8.154;2023-03-21T11:13:07;11.50;99.90
3638;DHT22;1835;50.068;8.154;2023-03-21T11:15:52;11.50;99.90
3638;DHT22;1835;50.068;8.154;2023-03-21T11:18:23;11.50;99.90
3638;DHT22;1835;50.068;8.154;2023-03-21T11:20:56;11.50;99.90
3638;DHT22;1835;50.068;8.154;2023-03-21T11:23:27;11.50;99.90
3638;DHT22;1835;50.068;8.154;2023-03-21T11:25:58;11.60;99.90
3638;DHT22;1835;50.068;8.154;2023-03-21T11:28:35;11.80;99.90
3638;DHT22;1835;50.068;8.154;2023-03-21T11:31:05;12.00;99.90
3638;DHT22;1835;50.068;8.154;2023-03-21T11:33:36;11.80;99.90
3638;DHT22;1835;50.068;8.154;2023-03-21T11:36:25;11.70;99.90
3638;DHT22;1835;50.068;8.154;2023-03-21T11:39:13;11.80;99.90
3638;DHT22;1835;50.068;8.154;2023-03-21T11:41:47;12.00;99.90
3638;DHT22;1835;50.068;8.154;2023-03-21T11:44:27;12.10;99.90
3638;DHT22;1835;50.068;8.154;2023-03-21T11:46:56;12.40;99.90
3638;DHT22;1835;50.068;8.154;2023-03-21T11:49:25;12.50;99.90
3638;DHT22;1835;50.068;8.154;2023-03-21T11:52:13;12.30;99.90
3638;DHT22;1835;50.068;8.154;2023-03-21T11:55:02;12.20;99.90
3638;DHT22;1835;50.068;8.154;2023-03-21T11:57:56;12.40;99.90
3638;DHT22;1835;50.068;8.154;2023-03-21T12:00:46;12.10;99.90
3638;DHT22;1835;50.068;8.154;2023-03-21T12:03:45;11.90;99.90
3638;DHT22;1835;50.068;8.154;2023-03-21T12:06:23;12.00;99.90
3638;DHT22;1835;50.068;8.154;2023-03-21T12:09:06;12.10;99.90
3638;DHT22;1835;50.068;8.154;2023-03-21T12:11:57;12.40;99.90
3638;DHT22;1835;50.068;8.154;2023-03-21T12:14:34;12.50;99.90
3638;DHT22;1835;50.068;8.154;2023-03-21T12:17:16;12.50;99.90
3638;DHT22;1835;50.068;8.154;2023-03-21T12:20:00;12.80;99.90
3638;DHT22;1835;50.068;8.154;2023-03-21T12:22:44;12.60;99.90
3638;DHT22;1835;50.068;8.154;2023-03-21T12:25:26;12.50;99.90
3638;DHT22;1835;50.068;8.154;2023-03-21T12:28:04;12.20;99.90
3638;DHT22;1835;50.068;8.154;2023-03-21T12:30:49;12.30;99.90
3638;DHT22;1835;50.068;8.154;2023-03-21T12:33:47;12.20;99.90
3638;DHT22;1835;50.068;8.154;2023-03-21T12:36:34;12.50;99.90
3638;DHT22;1835;50.068;8.154;2023-03-21T12:39:21;12.50;99.90
3638;DHT22;1835;50.068;8.154;2023-03-21T12:42:08;12.80;99.90
3638;DHT22;1835;50.068;8.154;2023-03-21T12:44:59;12.70;99.90
3638;DHT22;1835;50.068;8.154;2023-03-21T12:47:42;12.80;99.90
3638;DHT22;1835;50.068;8.154;2023-03-21T12:50:16;12.40;99.90
3638;DHT22;1835;50.068;8.154;2023-03-21T12:52:49;12.30;99.90
3638;DHT22;1835;50.068;8.154;2023-03-21T12:55:21;12.20;99.90
3638;DHT22;1835;50.068;8.154;2023-03-21T12:57:57;12.30;99.90
3638;DHT22;1835;50.068;8.154;2023-03-21T13:00:34;12.40;99.90
3638;DHT22;1835;50.068;8.154;2023-03-21T13:03:11;12.60;99.90
3638;DHT22;1835;50.068;8.154;2023-03-21T13:05:46;12.50;99.90
3638;DHT22;1835;50.068;8.154;2023-03-21T13:08:22;12.70;99.90
3638;DHT22;1835;50.068;8.154;2023-03-21T13:10:52;13.00;99.90
3638;DHT22;1835;50.068;8.154;2023-03-21T13:13:28;12.90;99.90
3638;DHT22;1835;50.068;8.154;2023-03-21T13:16:08;12.90;99.90
3638;DHT22;1835;50.068;8.154;2023-03-21T13:18:53;12.80;99.90
3638;DHT22;1835;50.068;8.154;2023-03-21T13:21:37;12.40;99.90
3638;DHT22;1835;50.068;8.154;2023-03-21T13:24:27;12.40;99.90
3638;DHT22;1835;50.068;8.154;2023-03-21T13:27:02;12.30;99.90
3638;DHT22;1835;50.068;8.154;2023-03-21T13:29:44;12.30;99.90
3638;DHT22;1835;50.068;8.154;2023-03-21T13:32:27;12.20;99.90
3638;DHT22;1835;50.068;8.154;2023-03-21T13:34:58;11.90;99.90
3638;DHT22;1835;50.068;8.154;2023-03-21T13:37:30;11.90;99.90
3638;DHT22;1835;50.068;8.154;2023-03-21T13:40:01;12.10;99.90
3638;DHT22;1835;50.068;8.154;2023-03-21T13:42:42;12.00;99.90
3638;DHT22;1835;50.068;8.154;2023-03-21T13:45:25;12.00;99.90
3638;DHT22;1835;50.068;8.154;2023-03-21T13:47:56;12.10;99.90
3638;DHT22;1835;50.068;8.154;2023-03-21T13:50:33;12.50;99.90
3638;DHT22;1835;50.068;8.154;2023-03-21T13:53:19;12.50;99.90
3638;DHT22;1835;50.068;8.154;2023-03-21T13:56:22;12.70;99.90
3638;DHT22;1835;50.068;8.154;2023-03-21T13:59:01;12.70;99.90
3638;DHT22;1835;50.068;8.154;2023-03-21T14:01:37;12.60;99.90
3638;DHT22;1835;50.068;8.154;2023-03-21T14:04:15;12.60;99.90
3638;DHT22;1835;50.068;8.154;2023-03-21T14:06:49;12.90;99.90
3638;DHT22;1835;50.068;8.154;2023-03-21T14:09:24;12.80;99.90
3638;DHT22;1835;50.068;8.154;2023-03-21T14:11:56;12.60;99.90
3638;DHT22;1835;50.068;8.154;2023-03-21T14:14:36;12.40;99.90
3638;DHT22;1835;50.068;8.154;2023-03-21T14:17:12;12.50;99.90
3638;DHT22;1835;50.068;8.154;2023-03-21T14:19:41;12.40;99.90
3638;DHT22;1835;50.068;8.154;2023-03-21T14:22:10;12.50;99.90
3638;DHT22;1835;50.068;8.154;2023-03-21T14:24:46;12.40;99.90
3638;DHT22;1835;50.068;8.154;2023-03-21T14:27:17;12.10;99.90
3638;DHT22;1835;50.068;8.154;2023-03-21T14:29:48;12.10;99.90
3638;DHT22;1835;50.068;8.154;2023-03-21T14:32:21;12.00;99.90
3638;DHT22;1835;50.068;8.154;2023-03-21T14:34:50;11.70;99.90
3638;DHT22;1835;50.068;8.154;2023-03-21T14:37:28;11.70;99.90
3638;DHT22;1835;50.068;8.154;2023-03-21T14:39:59;11.70;99.90
3638;DHT22;1835;50.068;8.154;2023-03-21T14:42:33;11.90;99.90
3638;DHT22;1835;50.068;8.154;2023-03-21T14:45:14;12.10;99.90
3638;DHT22;1835;50.068;8.154;2023-03-21T14:47:58;12.20;99.90
3638;DHT22;1835;50.068;8.154;2023-03-21T14:50:33;12.20;99.90
3638;DHT22;1835;50.068;8.154;2023-03-21T14:53:06;12.40;99.90
3638;DHT22;1835;50.068;8.154;2023-03-21T14:55:41;12.50;99.90
3638;DHT22;1835;50.068;8.154;2023-03-21T14:58:12;12.70;99.90
3638;DHT22;1835;50.068;8.154;2023-03-21T15:00:40;12.60;99.90
3638;DHT22;1835;50.068;8.154;2023-03-21T15:03:11;12.50;99.90
3638;DHT22;1835;50.068;8.154;2023-03-21T15:05:41;12.60;99.90
3638;DHT22;1835;50.068;8.154;2023-03-21T15:08:13;12.50;99.90
3638;DHT22;1835;50.068;8.154;2023-03-21T15:10:53;12.60;99.90
3638;DHT22;1835;50.068;8.154;2023-03-21T15:13:35;12.90;99.90
3638;DHT22;1835;50.068;8.154;2023-03-21T15:16:05;13.00;99.90
3638;DHT22;1835;50.068;8.154;2023-03-21T15:18:37;12.60;99.90
3638;DHT22;1835;50.068;8.154;2023-03-21T15:21:09;12.50;99.90
3638;DHT22;1835;50.068;8.154;2023-03-21T15:23:41;12.50;99.90
3638;DHT22;1835;50.068;8.154;2023-03-21T15:26:13;12.20;99.90
3638;DHT22;1835;50.068;8.154;2023-03-21T15:28:44;12.20;99.90
3638;DHT22;1835;50.068;8.154;2023-03-21T15:31:15;12.30;99.90
3638;DHT22;1835;50.068;8.154;2023-03-21T15:33:48;12.40;99.90
3638;DHT22;1835;50.068;8.154;2023-03-21T15:36:18;12.60;99.90
3638;DHT22;1835;50.068;8.154;2023-03-21T15:38:49;12.50;99.90
3638;DHT22;1835;50.068;8.154;2023-03-21T15:41:26;12.70;99.90
3638;DHT22;1835;50.068;8.154;2023-03-21T15:44:09;12.60;99.90
3638;DHT22;1835;50.068;8.154;2023-03-21T15:46:41;12.50;99.90
3638;DHT22;1835;50.068;8.154;2023-03-21T15:49:22;12.30;99.90
3638;DHT22;1835;50.068;8.154;2023-03-21T15:51:56;12.20;99.90
3638;DHT22;1835;50.068;8.154;2023-03-21T15:54:29;12.20;99.90
3638;DHT22;1835;50.068;8.154;2023-03-21T15:57:00;12.10;99.90
3638;DHT22;1835;50.068;8.154;2023-03-21T15:59:39;12.20;99.90
3638;DHT22;1835;50.068;8.154;2023-03-21T16:02:15;12.10;99.90
3638;DHT22;1835;50.068;8.154;2023-03-21T16:04:59;12.10;99.90
3638;DHT22;1835;50.068;8.154;2023-03-21T16:07:27;11.90;99.90
3638;DHT22;1835;50.068;8.154;2023-03-21T16:09:58;12.10;99.90
3638;DHT22;1835;50.068;8.154;2023-03-21T16:12:30;12.30;99.90
3638;DHT22;1835;50.068;8.154;2023-03-21T16:14:59;12.40;99.90
3638;DHT22;1835;50.068;8.154;2023-03-21T16:17:31;12.30;99.90
3638;DHT22;1835;50.068;8.154;2023-03-21T16:20:12;12.30;99.90
3638;DHT22;1835;50.068;8.154;2023-03-21T16:22:46;12.20;99.90
3638;DHT22;1835;50.068;8.154;2023-03-21T16:25:14;12.20;99.90
3638;DHT22;1835;50.068;8.154;2023-03-21T16:27:43;12.30;99.90
3638;DHT22;1835;50.068;8.154;2023-03-21T16:30:12;12.30;99.90
3638;DHT22;1835;50.068;8.154;2023-03-21T16:32:42;12.30;99.90
3638;DHT22;1835;50.068;8.154;2023-03-21T16:35:11;12.50;99.90
3638;DHT22;1835;50.068;8.154;2023-03-21T16:37:40;12.60;99.90
3638;DHT22;1835;50.068;8.154;2023-03-21T16:40:23;12.70;99.90
3638;DHT22;1835;50.068;8.154;2023-03-21T16:42:54;12.50;99.90
3638;DHT22;1835;50.068;8.154;2023-03-21T16:45:22;12.70;99.90
3638;DHT22;1835;50.068;8.154;2023-03-21T16:47:51;12.80;99.90
3638;DHT22;1835;50.068;8.154;2023-03-21T16:50:23;12.60;99.90
3638;DHT22;1835;50.068;8.154;2023-03-21T16:52:56;12.80;99.90